Tri Cities Regional Tn Va Airport
KTRI : rendu visible

Aérodrome :











RETROUVEZ-NOUS SUR...

 
LOGIN :

S'inscrire | Disclaimer

   EN    FR    IT 

 









Légende :    VFR   VFR Marginal   IFR   IFR Intensif   IFR Très Intensif
Visi : 
Plafond : 
>= 8 km
>= 3000ft
5 à 8 km
1000 à 3000 ft
1500m à 5 km
500 à 1000 ft
800 à 1500m
200 à 500 ft
< 800m
< 200 ft
Symboles :   Orages  Brouillard  Fortes neiges  Fortes précipitations  Vent > 20 kt






- Altitude de l'aérodrome : 1519 ft
- Code IATA : TRI


KTRI - Tri Cities Regional Tn Va

DERNIER METAR :
  • 031253Z 00000KT 10SM SCT043 22/17 A3009 RMK AO2 SLP166 T02170172

METARs EXPIRÉS :
  • 031153Z 00000KT 10SM SCT040 19/17 A3009 RMK AO2 SLP166 T01890167 10189 20156 53000
  • 031053Z 00000KT 10SM SCT045 BKN250 16/15 A3009 RMK AO2 SLP165 T01610150

TAF KTRI
Valide du 03 à 12h jusqu'au 04 à 12h UTC


031126Z 0312/0412 00000KT P6SM SCT045 BKN250
FM031600 25008KT P6SM BKN040
FM040600 24004KT P6SM SCT150
FIR KZTL / Amérique du Nord



MET'MAP, la Météo Aéronautique d'un coup d'oeil ! - Copyright ORBIFLY Décembre 2007 - Disclaimer

ORBIFLY MET'MAP TEAM :

Programmation & Développement : Alexandra Zaïnal
Sur une idée originale de : Baudouin d'Aumeries
Assistance à la programmation : Marc-Olivier Méhu
Soutien technique & logistique : Manuel Goepfert

Contact : metmap@orbifly.com




SOURCES & CREDITS :

   NOAA       Earth
Advisory